Time;durP1;ratioP1;P1;durP2;ratioP2;P2;SDS_P1;SDS_P2;PMS_P1;PMS_P2;Temp;Humidity;BMP_temperature;BMP_pressure;BME280_temperature;BME280_humidity;BME280_pressure;Samples;Min_cycle;Max_cycle;Signal;HPM_P1;HPM_P2
2022/10/30 00:00:14;;;;;;;22.35;9.90;;;15.80;99.90;;;;;;5062345;28;20132;-71
2022/10/30 00:02:40;;;;;;;18.50;9.73;;;15.80;99.90;;;;;;5067414;28;20654;-71
2022/10/30 00:05:06;;;;;;;21.30;9.85;;;15.80;99.90;;;;;;5079135;28;20092;-71
2022/10/30 00:07:33;;;;;;;19.23;9.85;;;15.80;99.90;;;;;;5062228;28;20119;-71
2022/10/30 00:09:58;;;;;;;23.83;10.43;;;15.80;99.90;;;;;;5073196;28;20127;-71
2022/10/30 00:12:24;;;;;;;19.40;9.48;;;15.80;99.90;;;;;;5062214;28;20115;-71
2022/10/30 00:14:50;;;;;;;19.70;9.70;;;15.80;99.90;;;;;;5063635;28;20045;-71
2022/10/30 00:17:15;;;;;;;25.73;10.63;;;15.80;99.90;;;;;;5075300;28;20052;-71
2022/10/30 00:19:41;;;;;;;23.45;10.60;;;15.80;99.90;;;;;;5070338;28;20583;-71
2022/10/30 00:22:07;;;;;;;22.60;9.90;;;15.80;99.90;;;;;;5078398;28;20135;-71
2022/10/30 00:24:32;;;;;;;18.50;10.70;;;15.80;99.90;;;;;;5071522;28;20040;-71
2022/10/30 00:26:58;;;;;;;21.88;10.35;;;15.80;99.90;;;;;;5076106;28;20541;-71
2022/10/30 00:29:25;;;;;;;23.75;10.23;;;15.70;99.90;;;;;;5079173;28;20531;-71
2022/10/30 00:31:51;;;;;;;19.75;10.30;;;15.70;99.90;;;;;;5061707;28;20112;-71
2022/10/30 00:34:17;;;;;;;19.15;10.70;;;15.70;99.90;;;;;;5078031;28;20044;-71
2022/10/30 00:36:42;;;;;;;19.27;10.10;;;15.70;99.90;;;;;;5071740;28;20108;-71
2022/10/30 00:39:08;;;;;;;18.90;10.13;;;15.70;99.90;;;;;;5073733;28;20071;-71
2022/10/30 00:41:34;;;;;;;19.15;9.57;;;15.60;99.90;;;;;;5064276;28;20036;-71
2022/10/30 00:44:00;;;;;;;17.00;9.35;;;15.60;99.90;;;;;;5075324;28;20123;-71
2022/10/30 00:46:34;;;;;;;18.65;9.93;;;15.60;99.90;;;;;;5074639;28;20142;-71
2022/10/30 00:49:02;;;;;;;22.30;9.90;;;15.60;99.90;;;;;;5069982;28;20625;-71
2022/10/30 00:51:32;;;;;;;24.27;10.23;;;15.60;99.90;;;;;;5066242;28;20055;-71
2022/10/30 00:54:00;;;;;;;23.23;10.85;;;15.60;99.90;;;;;;5072591;28;20087;-71
2022/10/30 00:56:26;;;;;;;17.67;9.10;;;15.60;99.90;;;;;;5064006;28;20563;-72
2022/10/30 00:58:57;;;;;;;16.63;9.48;;;15.50;99.90;;;;;;5075662;28;20162;-72
2022/10/30 01:01:26;;;;;;;20.50;10.15;;;15.50;99.90;;;;;;5073800;28;20052;-71
2022/10/30 01:03:56;;;;;;;18.90;10.45;;;15.50;99.90;;;;;;5070013;28;20036;-72
2022/10/30 01:06:23;;;;;;;20.00;10.23;;;15.40;99.90;;;;;;5067312;28;20522;-71
2022/10/30 01:08:50;;;;;;;22.33;10.85;;;15.40;99.90;;;;;;5066514;28;20036;-71
2022/10/30 01:11:16;;;;;;;21.95;10.10;;;15.40;99.90;;;;;;5074778;28;20064;-72
2022/10/30 01:13:44;;;;;;;22.55;10.18;;;15.40;99.90;;;;;;5069050;28;20071;-71
2022/10/30 01:16:18;;;;;;;21.10;10.43;;;15.40;99.90;;;;;;5077079;28;20588;-70
2022/10/30 01:19:16;;;;;;;19.70;10.23;;;15.40;99.90;;;;;;5064565;28;20500;-72
2022/10/30 01:21:55;;;;;;;20.10;10.57;;;15.40;99.90;;;;;;5062647;28;20070;-71
2022/10/30 01:24:39;;;;;;;24.83;10.50;;;15.40;99.90;;;;;;5073841;28;20084;-70
2022/10/30 01:27:24;;;;;;;19.38;10.40;;;15.40;99.90;;;;;;5099864;27;20052;-71
2022/10/30 01:30:07;;;;;;;19.33;10.45;;;15.40;99.90;;;;;;5071763;28;20039;-71
2022/10/30 01:33:11;;;;;;;23.10;10.57;;;15.40;99.90;;;;;;5071193;28;20043;-71
2022/10/30 01:35:46;;;;;;;17.10;10.90;;;15.40;99.90;;;;;;5050779;28;20045;-71
2022/10/30 01:38:24;;;;;;;20.23;10.60;;;15.30;99.90;;;;;;5072196;28;20119;-72
2022/10/30 01:40:50;;;;;;;21.52;10.32;;;15.30;99.90;;;;;;5053673;28;20041;-71
2022/10/30 01:43:16;;;;;;;20.83;10.40;;;15.30;99.90;;;;;;5074337;28;20487;-72
2022/10/30 01:46:06;;;;;;;22.92;10.77;;;15.30;99.90;;;;;;5079315;28;20048;-71
2022/10/30 01:48:50;;;;;;;22.15;10.27;;;15.30;99.90;;;;;;5056306;28;20045;-72
2022/10/30 01:51:26;;;;;;;17.98;10.20;;;15.20;99.90;;;;;;5071059;28;20074;-71
2022/10/30 01:54:13;;;;;;;20.25;10.32;;;15.30;99.90;;;;;;5059357;28;20040;-71
2022/10/30 01:57:02;;;;;;;18.98;9.57;;;15.30;99.90;;;;;;5059459;28;20051;-71
2022/10/30 01:59:35;;;;;;;20.80;10.43;;;15.20;99.90;;;;;;5077720;28;20045;-71
2022/10/30 02:02:01;;;;;;;18.52;11.38;;;15.20;99.90;;;;;;5068142;28;20047;-71
2022/10/30 02:04:27;;;;;;;18.83;10.45;;;15.20;99.90;;;;;;5068167;28;20049;-71
2022/10/30 02:06:53;;;;;;;21.85;10.73;;;15.20;99.90;;;;;;5068989;28;21607;-71
2022/10/30 02:09:18;;;;;;;21.38;11.50;;;15.20;99.90;;;;;;5057795;28;20101;-72
2022/10/30 02:11:45;;;;;;;21.02;10.80;;;15.10;99.90;;;;;;5063856;28;20036;-71
2022/10/30 02:14:14;;;;;;;18.65;10.75;;;15.20;99.90;;;;;;5071394;28;20064;-71
2022/10/30 02:16:46;;;;;;;20.42;10.60;;;15.20;99.90;;;;;;5068001;28;20037;-71
2022/10/30 02:19:12;;;;;;;21.20;10.70;;;15.10;99.90;;;;;;5069421;28;20059;-71
2022/10/30 02:21:37;;;;;;;19.63;10.65;;;15.10;99.90;;;;;;5054761;28;20037;-71
2022/10/30 02:24:03;;;;;;;17.55;10.80;;;15.10;99.90;;;;;;5059582;28;20090;-71
2022/10/30 02:26:29;;;;;;;21.88;11.27;;;15.10;99.90;;;;;;5071726;28;20048;-71
2022/10/30 02:28:54;;;;;;;21.80;11.10;;;15.10;99.90;;;;;;5069187;28;20091;-71
2022/10/30 02:31:20;;;;;;;22.77;11.63;;;15.10;99.90;;;;;;5083050;28;20761;-71
2022/10/30 02:33:46;;;;;;;22.60;11.95;;;15.10;99.90;;;;;;5064541;28;20041;-71
2022/10/30 02:36:14;;;;;;;24.70;11.65;;;15.00;99.90;;;;;;5074277;28;20059;-71
2022/10/30 02:38:40;;;;;;;21.10;11.68;;;15.00;99.90;;;;;;5055565;28;20114;-71
2022/10/30 02:41:06;;;;;;;21.70;11.75;;;15.00;99.90;;;;;;5082576;28;20146;-71
2022/10/30 02:43:32;;;;;;;17.90;11.25;;;15.00;99.90;;;;;;5068897;28;20054;-71
2022/10/30 02:45:57;;;;;;;20.67;11.57;;;15.00;99.90;;;;;;5078798;28;20050;-71
2022/10/30 02:48:23;;;;;;;22.42;11.55;;;15.00;99.90;;;;;;5065343;28;20037;-71
2022/10/30 02:50:49;;;;;;;22.58;12.00;;;14.90;99.90;;;;;;5045936;28;20052;-71
2022/10/30 02:53:14;;;;;;;22.00;11.10;;;15.00;99.90;;;;;;5060779;28;20051;-71
2022/10/30 02:55:40;;;;;;;19.83;10.93;;;15.00;99.90;;;;;;5055333;28;20044;-71
2022/10/30 02:58:06;;;;;;;20.65;10.73;;;15.00;99.90;;;;;;5073238;28;20090;-71
2022/10/30 03:00:31;;;;;;;22.05;11.25;;;15.00;99.90;;;;;;5060512;28;20048;-71
2022/10/30 03:02:57;;;;;;;25.02;11.40;;;15.00;99.90;;;;;;5073124;28;20639;-71
2022/10/30 03:05:22;;;;;;;19.08;10.80;;;15.00;99.90;;;;;;5070304;28;20040;-70
2022/10/30 03:07:50;;;;;;;17.75;11.18;;;15.00;99.90;;;;;;5079422;28;20683;-71
2022/10/30 03:10:16;;;;;;;23.52;11.07;;;14.90;99.90;;;;;;5047908;28;20060;-71
2022/10/30 03:12:42;;;;;;;19.67;11.23;;;14.90;99.90;;;;;;5071984;28;20056;-71
2022/10/30 03:15:08;;;;;;;19.88;10.73;;;14.90;99.90;;;;;;5070600;28;20347;-71
2022/10/30 03:17:34;;;;;;;18.80;10.52;;;14.90;99.90;;;;;;5072310;28;20522;-72
2022/10/30 03:20:00;;;;;;;18.90;10.00;;;14.80;99.90;;;;;;5068827;28;20067;-71
2022/10/30 03:22:25;;;;;;;18.77;10.30;;;14.90;99.90;;;;;;5054394;28;20393;-71
2022/10/30 03:24:51;;;;;;;16.83;10.32;;;14.80;99.90;;;;;;5081409;28;20067;-71
2022/10/30 03:27:16;;;;;;;17.25;10.25;;;14.80;99.90;;;;;;5072849;28;20056;-71
2022/10/30 03:29:42;;;;;;;25.20;10.80;;;14.80;99.90;;;;;;5066247;28;20451;-71
2022/10/30 03:32:09;;;;;;;28.13;10.88;;;14.80;99.90;;;;;;5065792;28;20052;-71
2022/10/30 03:34:35;;;;;;;23.60;11.23;;;14.80;99.90;;;;;;5065134;28;20128;-71
2022/10/30 03:37:01;;;;;;;19.80;11.00;;;14.80;99.90;;;;;;5075302;28;20106;-71
2022/10/30 03:39:26;;;;;;;20.20;11.32;;;14.70;99.90;;;;;;5066831;28;20052;-71
2022/10/30 03:41:52;;;;;;;21.45;10.32;;;14.70;99.90;;;;;;5065389;28;20040;-71
2022/10/30 03:44:18;;;;;;;19.40;11.00;;;14.70;99.90;;;;;;5076405;28;20328;-71
2022/10/30 03:46:43;;;;;;;18.52;11.02;;;14.70;99.90;;;;;;5067031;28;20128;-71
2022/10/30 03:49:09;;;;;;;22.17;11.23;;;14.50;99.90;;;;;;5074001;28;20055;-72
2022/10/30 03:51:34;;;;;;;15.73;11.35;;;14.50;99.90;;;;;;5080931;28;20108;-71
2022/10/30 03:54:00;;;;;;;21.80;10.65;;;14.50;99.90;;;;;;5075265;28;20048;-71
2022/10/30 03:56:26;;;;;;;23.60;11.18;;;14.40;99.90;;;;;;5072596;28;20036;-71
2022/10/30 03:58:51;;;;;;;26.92;11.73;;;14.40;99.90;;;;;;5066680;28;20032;-71
2022/10/30 04:01:17;;;;;;;21.23;10.50;;;14.40;99.90;;;;;;5056123;28;20047;-71
2022/10/30 04:03:43;;;;;;;18.80;10.73;;;14.40;99.90;;;;;;5069329;28;20044;-72
2022/10/30 04:06:08;;;;;;;15.52;10.60;;;14.30;99.90;;;;;;5076626;28;20040;-72
2022/10/30 04:08:34;;;;;;;21.55;11.18;;;14.30;99.90;;;;;;5068030;28;20119;-71
2022/10/30 04:11:00;;;;;;;19.27;10.68;;;14.20;99.90;;;;;;5062784;28;20051;-71
2022/10/30 04:13:26;;;;;;;21.77;11.40;;;14.20;99.90;;;;;;5076106;28;20056;-71
2022/10/30 04:15:52;;;;;;;21.77;11.25;;;14.20;99.90;;;;;;5075576;28;20145;-72
2022/10/30 04:18:17;;;;;;;23.33;11.98;;;14.20;99.90;;;;;;5068783;28;20079;-71
2022/10/30 04:20:44;;;;;;;21.05;11.15;;;14.20;99.90;;;;;;5067106;28;20079;-72
2022/10/30 04:23:14;;;;;;;20.92;11.38;;;14.20;99.90;;;;;;5071587;28;20040;-72
2022/10/30 04:25:40;;;;;;;17.90;11.48;;;14.20;99.90;;;;;;5072059;28;20040;-71
2022/10/30 04:28:06;;;;;;;23.13;12.05;;;14.20;99.90;;;;;;5070161;28;20081;-71
2022/10/30 04:30:35;;;;;;;21.73;11.68;;;14.20;99.90;;;;;;5079588;28;20064;-72
2022/10/30 04:33:03;;;;;;;19.90;11.68;;;14.20;99.90;;;;;;5074458;28;20114;-71
2022/10/30 04:35:31;;;;;;;23.77;11.98;;;14.20;99.90;;;;;;5076875;28;20105;-71
2022/10/30 04:37:59;;;;;;;21.05;11.63;;;14.10;99.90;;;;;;5057683;28;20062;-72
2022/10/30 04:40:27;;;;;;;18.10;11.38;;;14.10;99.90;;;;;;5065569;28;20036;-71
2022/10/30 04:42:53;;;;;;;25.58;11.57;;;14.10;99.90;;;;;;5064336;28;20498;-71
2022/10/30 04:45:19;;;;;;;19.20;11.13;;;14.00;99.90;;;;;;5068304;28;20037;-72
2022/10/30 04:47:45;;;;;;;20.95;11.88;;;14.00;99.90;;;;;;5075636;28;20052;-71
2022/10/30 04:50:12;;;;;;;22.85;11.00;;;14.00;99.90;;;;;;5078781;28;20055;-71
2022/10/30 04:52:38;;;;;;;17.30;11.40;;;14.00;99.90;;;;;;5067250;28;20054;-71
2022/10/30 04:55:04;;;;;;;20.13;11.90;;;14.00;99.90;;;;;;5067764;28;20126;-72
2022/10/30 04:57:30;;;;;;;16.70;10.98;;;13.90;99.90;;;;;;5076068;28;20067;-71
2022/10/30 04:59:57;;;;;;;18.60;10.95;;;13.90;99.90;;;;;;5060625;28;20476;-72
2022/10/30 05:02:22;;;;;;;18.02;11.35;;;13.80;99.90;;;;;;5056464;28;20071;-71
2022/10/30 05:04:48;;;;;;;18.40;11.15;;;13.70;99.90;;;;;;5067119;28;20136;-71
2022/10/30 05:07:14;;;;;;;21.98;11.52;;;13.60;99.90;;;;;;5065306;28;20048;-71
2022/10/30 05:09:40;;;;;;;16.80;11.10;;;13.60;99.90;;;;;;5062217;28;20131;-71
2022/10/30 05:12:06;;;;;;;23.38;12.23;;;13.50;99.90;;;;;;5078785;28;20126;-71
2022/10/30 05:14:32;;;;;;;22.17;11.82;;;13.60;99.90;;;;;;5063237;28;20055;-71
2022/10/30 05:16:58;;;;;;;21.45;12.43;;;13.60;99.90;;;;;;5054404;28;20041;-71
2022/10/30 05:19:24;;;;;;;22.42;12.82;;;13.60;99.90;;;;;;5063061;28;20607;-71
2022/10/30 05:21:50;;;;;;;21.27;12.10;;;13.60;99.90;;;;;;5062450;28;20077;-71
2022/10/30 05:24:16;;;;;;;22.17;12.35;;;13.60;99.90;;;;;;5071403;28;20048;-71
2022/10/30 05:26:41;;;;;;;21.98;12.75;;;13.60;99.90;;;;;;5077513;28;20123;-71
2022/10/30 05:29:07;;;;;;;20.25;11.90;;;13.60;99.90;;;;;;5069754;28;20143;-71
2022/10/30 05:31:33;;;;;;;26.05;12.88;;;13.60;99.90;;;;;;5057973;28;20450;-71
2022/10/30 05:33:58;;;;;;;18.70;12.00;;;13.50;99.90;;;;;;5075829;28;20054;-71
2022/10/30 05:36:24;;;;;;;19.95;12.23;;;13.50;99.90;;;;;;5062482;28;20140;-71
2022/10/30 05:38:49;;;;;;;20.58;11.40;;;13.50;99.90;;;;;;5069504;28;21981;-70
2022/10/30 05:41:15;;;;;;;22.45;12.93;;;13.50;99.90;;;;;;5072906;28;20044;-72
2022/10/30 05:43:41;;;;;;;19.45;12.13;;;13.40;99.90;;;;;;5079459;28;20081;-71
2022/10/30 05:46:06;;;;;;;23.23;13.02;;;13.40;99.90;;;;;;5074328;28;20051;-72
2022/10/30 05:48:32;;;;;;;23.75;12.90;;;13.50;99.90;;;;;;5074997;28;20055;-72
2022/10/30 05:50:57;;;;;;;22.48;12.98;;;13.40;99.90;;;;;;5077800;28;20127;-71
2022/10/30 05:53:23;;;;;;;20.35;13.00;;;13.40;99.90;;;;;;5072655;28;20470;-71
2022/10/30 05:55:49;;;;;;;21.52;13.27;;;13.40;99.90;;;;;;5080547;28;20060;-72
2022/10/30 05:58:15;;;;;;;21.30;13.30;;;13.40;99.90;;;;;;5066150;28;20048;-71
2022/10/30 06:00:43;;;;;;;22.40;14.13;;;13.40;99.90;;;;;;5069973;28;20107;-71
2022/10/30 06:03:12;;;;;;;22.63;13.95;;;13.40;99.90;;;;;;5070958;28;20041;-72
2022/10/30 06:05:38;;;;;;;22.48;13.60;;;13.40;99.90;;;;;;5074124;28;20131;-72
2022/10/30 06:08:05;;;;;;;27.45;14.23;;;13.40;99.90;;;;;;5064416;28;20192;-71
2022/10/30 06:10:32;;;;;;;26.00;14.40;;;13.50;99.90;;;;;;5063667;28;20044;-72
2022/10/30 06:13:00;;;;;;;25.13;14.07;;;13.50;99.90;;;;;;5073848;28;20068;-72
2022/10/30 06:15:27;;;;;;;25.92;14.70;;;13.50;99.90;;;;;;5072529;28;20028;-71
2022/10/30 06:17:53;;;;;;;27.58;14.40;;;13.50;99.90;;;;;;5076549;28;20044;-71
2022/10/30 06:20:20;;;;;;;19.92;14.10;;;13.50;99.90;;;;;;5068752;28;20039;-71
2022/10/30 06:22:59;;;;;;;22.13;13.93;;;13.50;99.90;;;;;;5062962;28;20052;-71
2022/10/30 06:25:26;;;;;;;22.80;14.35;;;13.50;99.90;;;;;;5064571;28;20029;-71
2022/10/30 06:27:51;;;;;;;23.52;14.13;;;13.50;99.90;;;;;;5070020;28;20056;-71
2022/10/30 06:30:18;;;;;;;20.90;13.85;;;13.50;99.90;;;;;;5074060;28;20727;-71
2022/10/30 06:32:43;;;;;;;22.20;13.68;;;13.40;99.90;;;;;;5066489;28;20861;-71
2022/10/30 06:35:09;;;;;;;25.02;14.25;;;13.50;99.90;;;;;;5051055;28;20052;-71
2022/10/30 06:37:37;;;;;;;22.17;13.63;;;13.50;99.90;;;;;;5078100;28;20065;-71
2022/10/30 06:40:08;;;;;;;24.75;15.18;;;13.40;99.90;;;;;;5061326;28;20044;-72
2022/10/30 06:42:42;;;;;;;30.17;14.55;;;13.50;99.90;;;;;;5066638;28;20068;-72
2022/10/30 06:45:08;;;;;;;23.63;14.43;;;13.50;99.90;;;;;;5063814;28;20040;-71
2022/10/30 06:47:35;;;;;;;19.55;14.02;;;13.50;99.90;;;;;;5071339;28;20040;-71
2022/10/30 06:50:01;;;;;;;23.70;14.52;;;13.50;99.90;;;;;;5060053;28;20050;-71
2022/10/30 06:52:26;;;;;;;28.98;15.40;;;13.50;99.90;;;;;;5080839;28;20072;-70
2022/10/30 06:54:52;;;;;;;23.92;15.85;;;13.50;99.90;;;;;;5066658;28;20064;-71
2022/10/30 06:57:17;;;;;;;22.00;15.32;;;13.50;99.90;;;;;;5065495;28;20055;-72
2022/10/30 06:59:43;;;;;;;28.40;15.70;;;13.60;99.90;;;;;;5068245;28;20202;-72
2022/10/30 07:02:09;;;;;;;21.80;15.40;;;13.60;99.90;;;;;;5066701;28;20116;-71
2022/10/30 07:04:35;;;;;;;22.00;15.47;;;13.60;99.90;;;;;;5058290;28;20094;-72
2022/10/30 07:07:01;;;;;;;24.17;15.05;;;13.60;99.90;;;;;;5063813;28;20314;-70
2022/10/30 07:09:27;;;;;;;24.63;15.48;;;13.70;99.90;;;;;;5053507;28;20045;-71
2022/10/30 07:11:52;;;;;;;25.58;17.20;;;13.80;99.90;;;;;;5059593;28;20041;-73
2022/10/30 07:14:18;;;;;;;25.35;15.48;;;13.70;99.90;;;;;;5070850;28;20104;-71
2022/10/30 07:16:43;;;;;;;28.45;16.10;;;13.70;99.90;;;;;;5060033;28;20122;-72
2022/10/30 07:19:09;;;;;;;26.33;15.90;;;13.80;99.90;;;;;;5066083;28;20052;-73
2022/10/30 07:21:34;;;;;;;23.67;16.08;;;13.80;99.90;;;;;;5078339;28;20151;-76
2022/10/30 07:24:00;;;;;;;27.02;16.60;;;13.80;99.90;;;;;;5073380;28;20044;-74
2022/10/30 07:26:26;;;;;;;28.05;16.80;;;13.80;99.90;;;;;;5055704;28;20045;-75
2022/10/30 07:28:51;;;;;;;23.50;16.23;;;13.80;99.90;;;;;;5069084;28;20032;-74
2022/10/30 07:31:17;;;;;;;24.10;16.50;;;13.80;99.90;;;;;;5073251;28;20044;-77
2022/10/30 07:33:42;;;;;;;23.23;16.42;;;13.90;99.90;;;;;;5075114;28;20052;-75
2022/10/30 07:36:08;;;;;;;26.67;16.70;;;13.90;99.90;;;;;;5081981;28;20553;-76
2022/10/30 07:38:34;;;;;;;23.75;16.73;;;13.90;99.90;;;;;;5078458;28;20139;-76
2022/10/30 07:40:59;;;;;;;25.73;16.73;;;14.00;99.90;;;;;;5068648;28;20048;-74
2022/10/30 07:43:25;;;;;;;28.67;18.15;;;14.00;99.90;;;;;;5058590;28;20894;-77
2022/10/30 07:45:50;;;;;;;27.92;18.02;;;14.10;99.90;;;;;;5052668;28;20090;-76
2022/10/30 07:48:16;;;;;;;29.45;17.85;;;14.10;99.90;;;;;;5057632;28;20062;-76
2022/10/30 07:50:42;;;;;;;29.52;17.48;;;14.10;99.90;;;;;;5066360;28;20044;-75
2022/10/30 07:53:07;;;;;;;28.70;17.40;;;14.10;99.90;;;;;;5072156;28;20160;-75
2022/10/30 07:55:33;;;;;;;27.08;17.23;;;14.20;99.90;;;;;;5071187;28;20043;-75
2022/10/30 07:57:58;;;;;;;24.75;17.85;;;14.20;99.90;;;;;;5058199;28;20045;-80
2022/10/30 08:00:24;;;;;;;27.25;18.08;;;14.30;99.90;;;;;;5059560;28;20119;-83
2022/10/30 08:02:54;;;;;;;29.38;17.27;;;14.30;99.90;;;;;;5055917;28;20041;-80
2022/10/30 08:05:20;;;;;;;28.95;17.30;;;14.40;99.90;;;;;;5071294;28;20119;-80
2022/10/30 08:07:47;;;;;;;24.67;16.75;;;14.40;99.90;;;;;;5067092;28;20123;-78
2022/10/30 08:10:13;;;;;;;27.50;16.70;;;14.50;99.90;;;;;;5066475;28;20112;-79
2022/10/30 08:12:40;;;;;;;21.77;16.25;;;14.60;99.90;;;;;;5074906;28;20116;-79
2022/10/30 08:15:07;;;;;;;26.88;17.17;;;14.60;99.90;;;;;;5065357;28;20047;-78
2022/10/30 08:17:39;;;;;;;23.52;16.55;;;14.70;99.90;;;;;;5061072;28;20064;-77
2022/10/30 08:20:06;;;;;;;26.42;17.83;;;14.70;99.90;;;;;;5056878;28;20070;-79
2022/10/30 08:22:31;;;;;;;31.07;18.83;;;14.70;99.90;;;;;;5062988;28;20438;-78
2022/10/30 08:24:57;;;;;;;28.95;18.27;;;14.80;99.90;;;;;;5063629;28;20039;-77
2022/10/30 08:27:23;;;;;;;31.00;20.65;;;14.80;99.90;;;;;;5065492;28;20414;-75
2022/10/30 08:29:49;;;;;;;39.22;23.58;;;14.80;99.90;;;;;;5076828;28;20051;-75
2022/10/30 08:32:15;;;;;;;38.80;23.73;;;14.90;99.90;;;;;;5071974;28;20079;-75
2022/10/30 08:34:41;;;;;;;36.50;21.67;;;14.90;99.90;;;;;;5069865;28;20064;-75
2022/10/30 08:37:07;;;;;;;33.22;22.15;;;15.00;99.90;;;;;;5066662;28;20791;-75
2022/10/30 08:39:32;;;;;;;32.13;21.52;;;15.00;99.90;;;;;;5080096;28;20127;-75
2022/10/30 08:41:58;;;;;;;31.30;20.92;;;15.10;99.90;;;;;;5073398;28;20040;-75
2022/10/30 08:44:25;;;;;;;27.27;18.38;;;15.10;99.90;;;;;;5072504;28;20157;-75
2022/10/30 08:46:51;;;;;;;30.38;18.50;;;15.10;99.90;;;;;;5070047;28;20127;-74
2022/10/30 08:49:16;;;;;;;27.25;18.48;;;15.20;99.90;;;;;;5078027;28;20071;-75
2022/10/30 08:51:43;;;;;;;23.20;17.65;;;15.20;99.90;;;;;;5073044;28;20040;-74
2022/10/30 08:54:09;;;;;;;25.45;18.02;;;15.30;99.90;;;;;;5065848;28;20689;-74
2022/10/30 08:56:35;;;;;;;27.88;19.83;;;15.30;99.90;;;;;;5068193;28;20067;-84
2022/10/30 08:59:00;;;;;;;30.38;19.35;;;15.40;99.90;;;;;;5075202;28;20142;-76
2022/10/30 09:01:26;;;;;;;25.88;19.77;;;15.40;99.90;;;;;;5057409;28;20086;-77
2022/10/30 09:03:52;;;;;;;33.15;21.13;;;15.40;99.90;;;;;;5063876;28;20084;-80
2022/10/30 09:06:18;;;;;;;31.23;21.30;;;15.40;99.90;;;;;;5068477;28;20131;-81
2022/10/30 09:08:45;;;;;;;31.83;21.67;;;15.50;99.90;;;;;;5073350;28;20058;-83
2022/10/30 09:11:11;;;;;;;28.75;20.40;;;15.50;99.90;;;;;;5066027;28;20095;-81
2022/10/30 09:13:36;;;;;;;27.00;19.02;;;15.50;99.90;;;;;;5063946;28;20499;-82
2022/10/30 09:16:03;;;;;;;28.13;20.17;;;15.50;99.90;;;;;;5053684;28;20159;-83
2022/10/30 09:18:29;;;;;;;28.90;18.85;;;15.60;99.90;;;;;;5078838;28;20051;-80
2022/10/30 09:20:55;;;;;;;27.33;19.07;;;15.60;99.90;;;;;;5067852;28;20428;-83
2022/10/30 09:23:21;;;;;;;29.10;18.17;;;15.60;99.90;;;;;;5071795;28;20111;-82
2022/10/30 09:25:47;;;;;;;29.02;19.55;;;15.70;99.90;;;;;;5053283;28;20499;-82
2022/10/30 09:28:12;;;;;;;30.85;19.30;;;15.70;99.90;;;;;;5066978;28;20656;-80
2022/10/30 09:30:38;;;;;;;26.92;18.30;;;15.80;99.90;;;;;;5061006;28;20550;-81
2022/10/30 09:33:04;;;;;;;26.10;18.73;;;15.80;99.90;;;;;;5058804;28;20033;-82
2022/10/30 09:35:31;;;;;;;28.25;19.50;;;15.80;99.90;;;;;;5081141;28;20044;-77
2022/10/30 09:37:57;;;;;;;25.45;18.75;;;15.90;99.90;;;;;;5058313;28;20098;-77
2022/10/30 09:40:53;;;;;;;32.25;22.73;;;15.90;99.90;;;;;;5069195;28;20490;-78
2022/10/30 09:43:23;;;;;;;32.97;23.65;;;15.90;99.90;;;;;;5069004;28;20506;-76
2022/10/30 09:46:14;;;;;;;29.50;22.67;;;16.00;99.90;;;;;;5069082;28;20056;-76
2022/10/30 09:49:15;;;;;;;30.38;20.60;;;16.10;99.90;;;;;;5048189;28;20095;-82
2022/10/30 09:51:41;;;;;;;34.03;19.67;;;16.10;99.90;;;;;;4987528;28;20049;-83
2022/10/30 09:54:27;;;;;;;28.08;19.90;;;16.20;99.90;;;;;;5049563;28;20048;-78
2022/10/30 09:57:16;;;;;;;29.55;18.92;;;16.20;99.90;;;;;;5071404;28;20035;-85
2022/10/30 10:00:11;;;;;;;30.15;19.08;;;16.30;99.90;;;;;;5062995;28;20044;-79
2022/10/30 10:02:52;;;;;;;28.38;19.35;;;16.30;99.90;;;;;;5053816;28;20045;-80
2022/10/30 10:05:29;;;;;;;28.85;18.42;;;16.40;99.90;;;;;;5050273;28;20103;-80
2022/10/30 10:08:01;;;;;;;28.42;18.60;;;16.50;99.90;;;;;;5065073;28;20048;-73
2022/10/30 10:10:47;;;;;;;28.15;18.35;;;16.50;99.90;;;;;;5066719;28;20119;-73
2022/10/30 10:13:33;;;;;;;34.13;18.98;;;16.60;99.90;;;;;;5073227;28;20032;-82
2022/10/30 10:16:09;;;;;;;29.98;17.88;;;16.70;99.90;;;;;;5065785;28;20048;-79
2022/10/30 10:18:43;;;;;;;24.87;18.40;;;16.70;99.90;;;;;;5063922;28;20143;-75
2022/10/30 10:21:31;;;;;;;25.20;18.15;;;16.80;99.90;;;;;;5073695;28;20483;-76
2022/10/30 10:24:03;;;;;;;28.70;18.63;;;16.80;99.90;;;;;;5066119;28;20040;-76
2022/10/30 10:26:34;;;;;;;31.90;19.35;;;16.90;99.90;;;;;;5078891;28;20048;-81
2022/10/30 10:29:33;;;;;;;31.33;18.55;;;17.00;99.90;;;;;;5067189;28;20050;-76
2022/10/30 10:32:17;;;;;;;26.98;18.55;;;17.00;99.90;;;;;;5061582;28;20067;-80
2022/10/30 10:34:56;;;;;;;26.13;16.92;;;17.00;99.90;;;;;;5070699;28;20044;-80
2022/10/30 10:37:40;;;;;;;29.10;20.02;;;17.10;99.90;;;;;;5066085;28;20051;-85
2022/10/30 10:40:26;;;;;;;29.98;18.95;;;17.10;99.90;;;;;;5059588;28;20091;-76
2022/10/30 10:43:01;;;;;;;27.02;18.30;;;17.10;99.90;;;;;;5065831;28;20200;-78
2022/10/30 10:46:00;;;;;;;27.33;19.50;;;17.20;99.90;;;;;;5070601;28;20590;-82
2022/10/30 10:48:50;;;;;;;28.90;19.00;;;17.30;99.90;;;;;;5055494;28;20381;-79
2022/10/30 10:51:21;;;;;;;28.48;18.80;;;17.40;99.90;;;;;;5065239;28;20067;-79
2022/10/30 10:54:01;;;;;;;30.35;20.00;;;17.40;99.90;;;;;;5073288;28;20123;-79
2022/10/30 10:56:35;;;;;;;32.05;20.05;;;17.40;99.90;;;;;;5068950;28;20037;-79
2022/10/30 10:59:12;;;;;;;31.50;21.50;;;17.60;99.90;;;;;;5065012;28;20465;-75
2022/10/30 11:01:39;;;;;;;27.00;19.30;;;17.60;99.90;;;;;;5069569;28;20045;-76
2022/10/30 11:04:13;;;;;;;30.08;20.52;;;17.60;99.90;;;;;;5074198;28;20051;-76
2022/10/30 11:06:42;;;;;;;31.17;20.77;;;17.70;99.90;;;;;;5074334;28;20068;-77
2022/10/30 11:09:15;;;;;;;26.15;17.98;;;17.70;99.90;;;;;;5054095;28;20143;-76
2022/10/30 11:11:43;;;;;;;30.38;19.02;;;17.80;99.90;;;;;;5068019;28;20048;-81
2022/10/30 11:14:14;;;;;;;29.08;18.77;;;17.90;99.90;;;;;;5067199;28;20484;-77
2022/10/30 11:16:54;;;;;;;24.83;16.95;;;17.90;99.90;;;;;;5045911;28;20108;-77
2022/10/30 11:19:19;;;;;;;29.48;18.17;;;18.00;99.90;;;;;;5045830;28;20484;-78
2022/10/30 11:21:49;;;;;;;25.75;19.50;;;18.00;99.90;;;;;;5046833;28;20055;-84
2022/10/30 11:24:26;;;;;;;29.45;19.75;;;18.00;99.90;;;;;;5069060;28;20394;-76
2022/10/30 11:26:53;;;;;;;28.70;18.48;;;18.10;99.90;;;;;;5075860;28;20131;-75
2022/10/30 11:29:26;;;;;;;30.75;17.92;;;18.10;99.90;;;;;;5066883;28;20072;-79
2022/10/30 11:32:04;;;;;;;30.13;18.50;;;18.20;99.90;;;;;;5051216;28;20049;-76
2022/10/30 11:34:35;;;;;;;24.20;17.77;;;18.20;99.90;;;;;;5077412;28;20040;-76
2022/10/30 11:37:01;;;;;;;28.67;19.45;;;18.30;99.90;;;;;;5054111;28;20044;-76
2022/10/30 11:39:29;;;;;;;26.50;17.30;;;18.30;99.90;;;;;;5058271;28;20049;-76
2022/10/30 11:42:14;;;;;;;31.35;18.67;;;18.40;99.90;;;;;;5065285;28;20078;-77
2022/10/30 11:44:49;;;;;;;33.92;19.10;;;18.50;99.90;;;;;;5065642;28;20056;-77
2022/10/30 11:47:16;;;;;;;28.55;18.10;;;18.50;99.90;;;;;;5067277;28;20053;-77
2022/10/30 11:49:47;;;;;;;29.90;19.30;;;18.60;99.90;;;;;;5066425;28;20166;-77
2022/10/30 11:52:16;;;;;;;26.83;17.65;;;18.60;99.90;;;;;;5066156;28;20491;-77
2022/10/30 11:54:49;;;;;;;30.98;16.77;;;18.70;99.90;;;;;;5065814;28;20084;-77
2022/10/30 11:57:37;;;;;;;24.67;15.45;;;18.70;99.90;;;;;;5065988;28;20049;-77
2022/10/30 12:00:15;;;;;;;25.65;16.27;;;18.80;99.90;;;;;;5067292;28;20052;-77
2022/10/30 12:02:44;;;;;;;27.17;15.63;;;18.80;99.90;;;;;;5066624;28;20459;-77
2022/10/30 12:05:37;;;;;;;26.08;15.45;;;18.90;99.90;;;;;;5067657;28;20165;-77
2022/10/30 12:08:06;;;;;;;22.35;15.73;;;18.90;99.90;;;;;;5062473;28;20060;-77
2022/10/30 12:10:36;;;;;;;32.22;16.45;;;18.90;99.90;;;;;;5065206;28;20157;-77
2022/10/30 12:13:05;;;;;;;29.75;15.70;;;18.90;99.90;;;;;;5065879;28;20044;-77
2022/10/30 12:15:36;;;;;;;27.67;16.05;;;19.00;99.90;;;;;;5058613;28;20425;-77
2022/10/30 12:18:05;;;;;;;27.02;16.45;;;19.00;99.90;;;;;;5068316;28;20135;-77
2022/10/30 12:20:32;;;;;;;32.38;16.75;;;19.00;99.90;;;;;;5069390;28;20501;-77
2022/10/30 12:23:08;;;;;;;28.90;16.77;;;19.10;99.90;;;;;;5050343;28;20045;-77
2022/10/30 12:25:33;;;;;;;24.98;15.25;;;19.10;99.90;;;;;;5068894;28;20036;-77
2022/10/30 12:28:17;;;;;;;26.38;16.02;;;19.10;99.90;;;;;;5068900;28;20590;-77
2022/10/30 12:31:00;;;;;;;24.73;15.50;;;19.20;99.90;;;;;;5068883;28;20079;-77
2022/10/30 12:33:41;;;;;;;23.77;16.00;;;19.20;99.90;;;;;;5069468;28;20040;-77
2022/10/30 12:36:22;;;;;;;27.25;15.27;;;19.20;99.90;;;;;;5063113;28;20052;-77
2022/10/30 12:39:16;;;;;;;27.67;15.10;;;19.20;99.90;;;;;;5071493;28;20048;-77